BCS5KW EDDC-EDDH
Flight info
| Callsign | BCS5KW |
|---|---|
| Flight time | 0h 47m |
| Altitude | 28000 |
| Route | OSKAN9E OSKAN M748 RARUP RARUP6A |
| Aircraft | B77L/H-SDE1E2E3FGHIJ2J3J4J5M1RWXY/LB1D1 |
Departure
| Time | 2026-05-05 15:52 |
|---|---|
| Airport | Dresden Airport (EDDC) |
Arrival
| Time | 2026-05-05 16:39 |
|---|---|
| Airport | Hamburg Helmut Schmidt Airport (EDDH) |
| Time | Latitude | Longitude | Altitude | Speed | Heading |
|---|---|---|---|---|---|
| 2026-05-05 15:36 | 51.12762 | 13.76727 | 717 ft | 0 kts | 40° |
| 2026-05-05 15:42 | 51.12761 | 13.76727 | 715 ft | 0 kts | 40° |
| 2026-05-05 15:44 | 51.12748 | 13.76708 | 720 ft | 4 kts | 40° |
| 2026-05-05 15:45 | 51.12728 | 13.76680 | 719 ft | 4 kts | 41° |
| 2026-05-05 15:45 | 51.12710 | 13.76656 | 720 ft | 4 kts | 32° |
| 2026-05-05 15:45 | 51.12690 | 13.76646 | 719 ft | 4 kts | 328° |
| 2026-05-05 15:45 | 51.12672 | 13.76675 | 720 ft | 3 kts | 310° |
| 2026-05-05 15:46 | 51.12670 | 13.76679 | 720 ft | 0 kts | 311° |
| 2026-05-05 15:48 | 51.12672 | 13.76676 | 720 ft | 2 kts | 311° |
| 2026-05-05 15:48 | 51.12699 | 13.76627 | 720 ft | 9 kts | 311° |
| 2026-05-05 15:48 | 51.12739 | 13.76555 | 720 ft | 9 kts | 311° |
| 2026-05-05 15:49 | 51.12779 | 13.76482 | 719 ft | 9 kts | 309° |
| 2026-05-05 15:49 | 51.12777 | 13.76390 | 720 ft | 10 kts | 239° |
| 2026-05-05 15:49 | 51.12711 | 13.76282 | 720 ft | 17 kts | 221° |
| 2026-05-05 15:49 | 51.12616 | 13.76151 | 720 ft | 18 kts | 221° |
| 2026-05-05 15:50 | 51.12520 | 13.76019 | 719 ft | 18 kts | 220° |
| 2026-05-05 15:50 | 51.12423 | 13.75888 | 720 ft | 18 kts | 220° |
| 2026-05-05 15:50 | 51.12379 | 13.75721 | 717 ft | 18 kts | 289° |
| 2026-05-05 15:50 | 51.12437 | 13.75549 | 721 ft | 18 kts | 313° |
| 2026-05-05 15:51 | 51.12546 | 13.75574 | 720 ft | 18 kts | 39° |
| 2026-05-05 15:51 | 51.12715 | 13.75810 | 720 ft | 61 kts | 40° |
| 2026-05-05 15:51 | 51.13231 | 13.76518 | 721 ft | 133 kts | 40° |
| 2026-05-05 15:51 | 51.14082 | 13.77691 | 779 ft | 181 kts | 39° |
| 2026-05-05 15:52 | 51.15010 | 13.79034 | 1481 ft | 183 kts | 42° |
| 2026-05-05 15:52 | 51.15960 | 13.80387 | 2270 ft | 183 kts | 41° |
| 2026-05-05 15:52 | 51.16941 | 13.81742 | 2798 ft | 193 kts | 40° |
| 2026-05-05 15:52 | 51.17985 | 13.83179 | 3168 ft | 206 kts | 41° |
| 2026-05-05 15:53 | 51.19132 | 13.84760 | 3403 ft | 229 kts | 41° |
| 2026-05-05 15:53 | 51.20500 | 13.86115 | 3738 ft | 244 kts | 15° |
| 2026-05-05 15:53 | 51.22187 | 13.86087 | 4435 ft | 250 kts | 345° |
| 2026-05-05 15:53 | 51.23708 | 13.84624 | 4819 ft | 265 kts | 321° |
| 2026-05-05 15:54 | 51.25322 | 13.83171 | 5219 ft | 272 kts | 351° |
| 2026-05-05 15:54 | 51.27213 | 13.83140 | 5769 ft | 275 kts | 4° |
| 2026-05-05 15:54 | 51.29154 | 13.83141 | 6387 ft | 281 kts | 357° |
| 2026-05-05 15:54 | 51.31111 | 13.82888 | 7033 ft | 283 kts | 347° |
| 2026-05-05 15:55 | 51.32873 | 13.81578 | 7581 ft | 281 kts | 318° |
| 2026-05-05 15:55 | 51.34335 | 13.79468 | 8150 ft | 286 kts | 315° |
| 2026-05-05 15:55 | 51.35820 | 13.77330 | 8919 ft | 287 kts | 316° |
| 2026-05-05 15:55 | 51.37310 | 13.75209 | 9694 ft | 288 kts | 316° |
| 2026-05-05 15:56 | 51.38826 | 13.73058 | 10264 ft | 297 kts | 316° |
| 2026-05-05 15:56 | 51.40411 | 13.70813 | 10455 ft | 320 kts | 316° |
| 2026-05-05 15:56 | 51.42141 | 13.68371 | 10642 ft | 344 kts | 316° |
| 2026-05-05 15:56 | 51.43997 | 13.65756 | 10867 ft | 366 kts | 316° |
| 2026-05-05 15:57 | 51.45946 | 13.63012 | 11439 ft | 377 kts | 316° |
| 2026-05-05 15:57 | 51.47939 | 13.60202 | 12195 ft | 384 kts | 316° |
| 2026-05-05 15:57 | 51.49955 | 13.57352 | 13102 ft | 388 kts | 316° |
| 2026-05-05 15:57 | 51.51987 | 13.54473 | 14012 ft | 390 kts | 316° |
| 2026-05-05 15:58 | 51.54033 | 13.51572 | 14777 ft | 394 kts | 316° |
| 2026-05-05 15:58 | 51.56102 | 13.48634 | 15539 ft | 399 kts | 315° |
| 2026-05-05 15:58 | 51.58194 | 13.45661 | 16307 ft | 403 kts | 315° |
| 2026-05-05 15:58 | 51.60303 | 13.42657 | 17062 ft | 407 kts | 315° |
| 2026-05-05 15:59 | 51.62411 | 13.39655 | 17818 ft | 411 kts | 315° |
| 2026-05-05 15:59 | 51.64564 | 13.36582 | 18491 ft | 416 kts | 315° |
| 2026-05-05 15:59 | 51.66737 | 13.33477 | 19129 ft | 419 kts | 315° |
| 2026-05-05 15:59 | 51.68924 | 13.30341 | 19762 ft | 423 kts | 315° |
| 2026-05-05 16:00 | 51.71132 | 13.27166 | 20380 ft | 427 kts | 315° |
| 2026-05-05 16:00 | 51.73366 | 13.23950 | 21010 ft | 431 kts | 315° |
| 2026-05-05 16:00 | 51.75625 | 13.20696 | 21630 ft | 435 kts | 315° |
| 2026-05-05 16:00 | 51.77892 | 13.17426 | 22213 ft | 440 kts | 315° |
| 2026-05-05 16:01 | 51.80189 | 13.14105 | 22801 ft | 445 kts | 315° |
| 2026-05-05 16:01 | 51.82504 | 13.10754 | 23387 ft | 449 kts | 314° |
| 2026-05-05 16:01 | 51.84812 | 13.07406 | 23895 ft | 452 kts | 314° |
| 2026-05-05 16:01 | 51.87159 | 13.03999 | 24412 ft | 455 kts | 314° |
| 2026-05-05 16:02 | 51.89520 | 13.00569 | 24975 ft | 457 kts | 314° |
| 2026-05-05 16:02 | 51.91899 | 12.97106 | 25502 ft | 460 kts | 314° |
| 2026-05-05 16:02 | 51.94284 | 12.93630 | 26000 ft | 463 kts | 314° |
| 2026-05-05 16:02 | 51.96684 | 12.90132 | 26502 ft | 466 kts | 314° |
| 2026-05-05 16:03 | 51.99099 | 12.86608 | 26993 ft | 468 kts | 314° |
| 2026-05-05 16:03 | 52.01532 | 12.83052 | 27467 ft | 471 kts | 313° |
| 2026-05-05 16:03 | 52.03972 | 12.79482 | 27897 ft | 474 kts | 314° |
| 2026-05-05 16:03 | 52.06398 | 12.75924 | 27848 ft | 477 kts | 314° |
| 2026-05-05 16:04 | 52.08877 | 12.72284 | 27878 ft | 484 kts | 313° |
| 2026-05-05 16:04 | 52.11396 | 12.68578 | 27854 ft | 491 kts | 313° |
| 2026-05-05 16:04 | 52.13942 | 12.64825 | 27856 ft | 496 kts | 313° |
| 2026-05-05 16:04 | 52.16513 | 12.61025 | 27858 ft | 501 kts | 313° |
| 2026-05-05 16:05 | 52.19105 | 12.57188 | 27852 ft | 503 kts | 313° |
| 2026-05-05 16:05 | 52.21688 | 12.53362 | 27843 ft | 502 kts | 313° |
| 2026-05-05 16:05 | 52.24276 | 12.49521 | 27845 ft | 502 kts | 313° |
| 2026-05-05 16:05 | 52.26815 | 12.45628 | 27848 ft | 500 kts | 310° |
| 2026-05-05 16:06 | 52.29211 | 12.41526 | 27853 ft | 498 kts | 309° |
| 2026-05-05 16:06 | 52.31582 | 12.37389 | 27850 ft | 498 kts | 309° |
| 2026-05-05 16:06 | 52.33902 | 12.33190 | 27856 ft | 496 kts | 305° |
| 2026-05-05 16:06 | 52.35945 | 12.28682 | 27858 ft | 492 kts | 300° |
| 2026-05-05 16:07 | 52.37842 | 12.24129 | 27879 ft | 492 kts | 300° |
| 2026-05-05 16:07 | 52.39754 | 12.19474 | 27863 ft | 492 kts | 300° |
| 2026-05-05 16:07 | 52.41665 | 12.14823 | 27860 ft | 492 kts | 300° |
| 2026-05-05 16:07 | 52.43581 | 12.10182 | 27858 ft | 491 kts | 300° |
| 2026-05-05 16:08 | 52.45504 | 12.05553 | 27856 ft | 491 kts | 300° |
| 2026-05-05 16:08 | 52.47438 | 12.00919 | 27881 ft | 491 kts | 300° |
| 2026-05-05 16:08 | 52.49346 | 11.96351 | 27866 ft | 491 kts | 300° |
| 2026-05-05 16:08 | 52.51284 | 11.91714 | 27867 ft | 491 kts | 300° |
| 2026-05-05 16:09 | 52.53215 | 11.87085 | 27865 ft | 491 kts | 300° |
| 2026-05-05 16:09 | 52.55143 | 11.82455 | 27873 ft | 491 kts | 300° |
| 2026-05-05 16:09 | 52.57070 | 11.77817 | 27867 ft | 491 kts | 300° |
| 2026-05-05 16:09 | 52.58995 | 11.73174 | 27875 ft | 491 kts | 300° |
| 2026-05-05 16:10 | 52.60926 | 11.68507 | 27875 ft | 491 kts | 300° |
| 2026-05-05 16:10 | 52.62853 | 11.63840 | 27871 ft | 491 kts | 300° |
| 2026-05-05 16:10 | 52.64748 | 11.59243 | 27865 ft | 491 kts | 300° |
| 2026-05-05 16:10 | 52.66664 | 11.54586 | 27871 ft | 492 kts | 300° |
| 2026-05-05 16:11 | 52.68582 | 11.49916 | 27821 ft | 492 kts | 300° |
| 2026-05-05 16:11 | 52.74412 | 11.36101 | 26509 ft | 478 kts | 303° |
| 2026-05-05 16:12 | 52.76401 | 11.31775 | 26053 ft | 468 kts | 303° |
| 2026-05-05 16:12 | 52.80283 | 11.23380 | 25048 ft | 452 kts | 303° |
| 2026-05-05 16:13 | 52.85802 | 11.11197 | 23637 ft | 436 kts | 303° |
| 2026-05-05 16:13 | 52.87598 | 11.07185 | 23112 ft | 431 kts | 303° |
| 2026-05-05 16:13 | 52.89369 | 11.03217 | 22571 ft | 426 kts | 303° |
| 2026-05-05 16:14 | 52.92859 | 10.95381 | 21508 ft | 418 kts | 303° |
| 2026-05-05 16:14 | 52.96280 | 10.87681 | 20495 ft | 411 kts | 304° |
| 2026-05-05 16:15 | 52.99647 | 10.80080 | 19494 ft | 405 kts | 304° |
| 2026-05-05 16:15 | 53.02956 | 10.72591 | 18545 ft | 399 kts | 304° |
| 2026-05-05 16:16 | 53.06215 | 10.65195 | 17535 ft | 393 kts | 304° |
| 2026-05-05 16:16 | 53.09407 | 10.57932 | 16524 ft | 388 kts | 304° |
| 2026-05-05 16:17 | 53.12533 | 10.50798 | 15503 ft | 363 kts | 304° |
| 2026-05-05 16:17 | 53.13968 | 10.47519 | 15089 ft | 345 kts | 304° |
| 2026-05-05 16:18 | 53.16673 | 10.41323 | 14247 ft | 318 kts | 304° |
| 2026-05-05 16:18 | 53.17951 | 10.38389 | 13819 ft | 307 kts | 304° |
| 2026-05-05 16:18 | 53.20364 | 10.32840 | 12887 ft | 287 kts | 304° |
| 2026-05-05 16:19 | 53.21536 | 10.30137 | 12453 ft | 286 kts | 304° |
| 2026-05-05 16:19 | 53.22700 | 10.27449 | 12014 ft | 286 kts | 304° |
| 2026-05-05 16:19 | 53.25029 | 10.22064 | 11178 ft | 285 kts | 304° |
| 2026-05-05 16:20 | 53.27289 | 10.16835 | 10291 ft | 265 kts | 303° |
| 2026-05-05 16:20 | 53.29311 | 10.12158 | 9565 ft | 232 kts | 303° |
| 2026-05-05 16:21 | 53.31118 | 10.07954 | 8692 ft | 218 kts | 303° |
| 2026-05-05 16:22 | 53.33722 | 10.01887 | 7422 ft | 211 kts | 304° |
| 2026-05-05 16:22 | 53.35423 | 9.97915 | 6567 ft | 207 kts | 304° |
| 2026-05-05 16:23 | 53.37080 | 9.94039 | 5688 ft | 202 kts | 305° |
| 2026-05-05 16:23 | 53.37619 | 9.92778 | 5398 ft | 200 kts | 305° |
| 2026-05-05 16:23 | 53.39210 | 9.89053 | 4580 ft | 191 kts | 306° |
| 2026-05-05 16:24 | 53.39966 | 9.87257 | 4305 ft | 187 kts | 302° |
| 2026-05-05 16:24 | 53.40290 | 9.85153 | 4003 ft | 192 kts | 267° |
| 2026-05-05 16:24 | 53.39748 | 9.80686 | 3562 ft | 201 kts | 254° |
| 2026-05-05 16:25 | 53.39329 | 9.78463 | 3301 ft | 200 kts | 254° |
| 2026-05-05 16:25 | 53.38500 | 9.74146 | 3057 ft | 195 kts | 254° |
| 2026-05-05 16:25 | 53.38083 | 9.71966 | 3004 ft | 197 kts | 254° |
| 2026-05-05 16:26 | 53.36976 | 9.67766 | 2987 ft | 198 kts | 244° |
| 2026-05-05 16:26 | 53.35544 | 9.63804 | 2981 ft | 199 kts | 239° |
| 2026-05-05 16:27 | 53.34810 | 9.61839 | 2964 ft | 199 kts | 239° |
| 2026-05-05 16:27 | 53.34078 | 9.59876 | 2975 ft | 199 kts | 238° |
| 2026-05-05 16:27 | 53.33352 | 9.57921 | 2961 ft | 197 kts | 239° |
| 2026-05-05 16:27 | 53.32633 | 9.55978 | 2959 ft | 195 kts | 239° |
| 2026-05-05 16:28 | 53.31917 | 9.54053 | 2972 ft | 196 kts | 239° |
| 2026-05-05 16:28 | 53.31373 | 9.51973 | 2972 ft | 196 kts | 265° |
| 2026-05-05 16:28 | 53.31647 | 9.49807 | 2980 ft | 191 kts | 306° |
| 2026-05-05 16:28 | 53.32593 | 9.48361 | 2992 ft | 187 kts | 334° |
| 2026-05-05 16:29 | 53.33767 | 9.47383 | 3005 ft | 188 kts | 339° |
| 2026-05-05 16:29 | 53.34936 | 9.46500 | 2964 ft | 179 kts | 342° |
| 2026-05-05 16:29 | 53.36098 | 9.46399 | 2947 ft | 162 kts | 24° |
| 2026-05-05 16:29 | 53.37009 | 9.47560 | 3016 ft | 170 kts | 41° |
| 2026-05-05 16:30 | 53.37891 | 9.48898 | 2983 ft | 170 kts | 43° |
| 2026-05-05 16:30 | 53.38722 | 9.50268 | 2961 ft | 165 kts | 45° |
| 2026-05-05 16:30 | 53.39506 | 9.51675 | 2982 ft | 166 kts | 47° |
| 2026-05-05 16:30 | 53.40269 | 9.53113 | 2975 ft | 167 kts | 48° |
| 2026-05-05 16:31 | 53.41027 | 9.54582 | 2987 ft | 167 kts | 49° |
| 2026-05-05 16:31 | 53.41782 | 9.56066 | 2986 ft | 167 kts | 49° |
| 2026-05-05 16:31 | 53.42534 | 9.57559 | 2977 ft | 168 kts | 49° |
| 2026-05-05 16:31 | 53.43284 | 9.59054 | 2989 ft | 168 kts | 49° |
| 2026-05-05 16:32 | 53.44042 | 9.60570 | 3002 ft | 170 kts | 49° |
| 2026-05-05 16:32 | 53.44802 | 9.62093 | 2995 ft | 171 kts | 50° |
| 2026-05-05 16:32 | 53.45554 | 9.63605 | 2975 ft | 166 kts | 50° |
| 2026-05-05 16:32 | 53.46293 | 9.65088 | 2988 ft | 166 kts | 49° |
| 2026-05-05 16:33 | 53.47037 | 9.66583 | 3001 ft | 168 kts | 49° |
| 2026-05-05 16:33 | 53.47793 | 9.68097 | 2995 ft | 170 kts | 49° |
| 2026-05-05 16:33 | 53.48551 | 9.69622 | 2997 ft | 170 kts | 49° |
| 2026-05-05 16:33 | 53.49311 | 9.71148 | 2994 ft | 170 kts | 49° |
| 2026-05-05 16:34 | 53.50068 | 9.72671 | 2994 ft | 169 kts | 49° |
| 2026-05-05 16:34 | 53.50820 | 9.74183 | 2989 ft | 168 kts | 49° |
| 2026-05-05 16:34 | 53.51566 | 9.75682 | 2989 ft | 168 kts | 49° |
| 2026-05-05 16:34 | 53.52302 | 9.77163 | 2984 ft | 166 kts | 49° |
| 2026-05-05 16:35 | 53.53047 | 9.78665 | 2854 ft | 170 kts | 50° |
| 2026-05-05 16:35 | 53.53801 | 9.80184 | 2595 ft | 167 kts | 49° |
| 2026-05-05 16:35 | 53.54528 | 9.81648 | 2399 ft | 157 kts | 49° |
| 2026-05-05 16:35 | 53.55193 | 9.82987 | 2194 ft | 142 kts | 50° |
| 2026-05-05 16:36 | 53.55817 | 9.84248 | 1993 ft | 139 kts | 50° |
| 2026-05-05 16:36 | 53.56440 | 9.85504 | 1801 ft | 141 kts | 50° |
| 2026-05-05 16:36 | 53.57069 | 9.86773 | 1624 ft | 141 kts | 51° |
| 2026-05-05 16:36 | 53.57701 | 9.88047 | 1411 ft | 141 kts | 50° |
| 2026-05-05 16:37 | 53.58333 | 9.89316 | 1192 ft | 140 kts | 50° |
| 2026-05-05 16:37 | 53.58950 | 9.90571 | 1044 ft | 141 kts | 49° |
| 2026-05-05 16:37 | 53.59584 | 9.91848 | 812 ft | 141 kts | 50° |
| 2026-05-05 16:37 | 53.60224 | 9.93135 | 598 ft | 144 kts | 51° |
| 2026-05-05 16:38 | 53.60852 | 9.94412 | 399 ft | 143 kts | 50° |
| 2026-05-05 16:38 | 53.61466 | 9.95650 | 236 ft | 143 kts | 52° |
| 2026-05-05 16:38 | 53.62097 | 9.96924 | 58 ft | 141 kts | 51° |
| 2026-05-05 16:38 | 53.62666 | 9.98074 | 46 ft | 109 kts | 50° |
| 2026-05-05 16:39 | 53.62989 | 9.98728 | 50 ft | 41 kts | 50° |
| 2026-05-05 16:39 | 53.63085 | 9.98995 | 49 ft | 23 kts | 78° |
| 2026-05-05 16:39 | 53.63091 | 9.99163 | 47 ft | 13 kts | 94° |
| 2026-05-05 16:39 | 53.63064 | 9.99251 | 49 ft | 10 kts | 141° |
| 2026-05-05 16:40 | 53.63009 | 9.99198 | 51 ft | 11 kts | 230° |
| 2026-05-05 16:40 | 53.62962 | 9.99104 | 49 ft | 11 kts | 230° |
| 2026-05-05 16:40 | 53.62914 | 9.99008 | 50 ft | 11 kts | 230° |
| 2026-05-05 16:40 | 53.62861 | 9.98932 | 45 ft | 11 kts | 195° |
| 2026-05-05 16:41 | 53.62805 | 9.98970 | 46 ft | 9 kts | 120° |
| 2026-05-05 16:41 | 53.62825 | 9.99068 | 45 ft | 9 kts | 63° |
| 2026-05-05 16:41 | 53.62835 | 9.99102 | 45 ft | 0 kts | 63° |
| 2026-05-05 16:50 | 53.62835 | 9.99101 | 45 ft | 0 kts | 63° |
| 2026-05-05 16:54 | 0.01204 | 0.00001 | 53808 ft | 0 kts | 0° |